createdAt,value
2022-10-23T00:00:11.071Z,101295.47
2022-10-23T00:05:04.615Z,101304.97
2022-10-23T00:09:59.079Z,101291.47
2022-10-23T00:14:52.189Z,101279.72
2022-10-23T00:19:45.244Z,101267.16
2022-10-23T00:24:38.610Z,101257.28
2022-10-23T00:29:33.227Z,101279.00
2022-10-23T00:34:26.460Z,101261.09
2022-10-23T00:39:19.539Z,101261.84
2022-10-23T00:44:51.599Z,101267.44
2022-10-23T00:49:46.257Z,101289.97
2022-10-23T00:54:44.587Z,101222.59
2022-10-23T00:59:37.698Z,101288.22
2022-10-23T01:04:31.490Z,101229.84
2022-10-23T01:09:32.464Z,101290.19
2022-10-23T01:14:38.042Z,101259.66
2022-10-23T01:19:47.674Z,101265.91
2022-10-23T01:24:50.730Z,101296.63
2022-10-23T01:29:50.569Z,101287.97
2022-10-23T01:34:48.915Z,101279.56
2022-10-23T01:39:49.501Z,101307.50
2022-10-23T01:44:47.723Z,101213.72
2022-10-23T01:49:43.357Z,101315.53
2022-10-23T01:54:39.513Z,101304.56
2022-10-23T01:59:36.902Z,101293.47
2022-10-23T02:04:37.602Z,101198.25
2022-10-23T02:09:31.177Z,101313.56
2022-10-23T02:14:37.260Z,101297.34
2022-10-23T02:19:36.397Z,101317.84
2022-10-23T02:24:39.733Z,101246.81
2022-10-23T02:29:39.829Z,101295.69
2022-10-23T02:34:34.618Z,101334.19
2022-10-23T02:39:29.294Z,101347.31
2022-10-23T02:44:33.477Z,101313.00
2022-10-23T02:49:35.381Z,101366.88
2022-10-23T02:54:42.601Z,101333.50
2022-10-23T02:59:42.151Z,101331.91
2022-10-23T03:04:38.947Z,101319.13
2022-10-23T03:09:33.438Z,101361.19
2022-10-23T03:14:26.594Z,101365.38
2022-10-23T03:19:19.702Z,101333.53
2022-10-23T03:24:12.853Z,101341.19
2022-10-23T03:29:10.628Z,101371.22
2022-10-23T03:34:11.366Z,101368.66
2022-10-23T03:39:06.723Z,101232.81
2022-10-23T03:44:00.142Z,101338.69
2022-10-23T03:48:55.535Z,101366.13
2022-10-23T03:53:48.701Z,101346.47
2022-10-23T03:58:42.594Z,101390.28
2022-10-23T04:03:35.868Z,101362.34
2022-10-23T04:08:30.433Z,101359.84
2022-10-23T04:13:23.668Z,101405.56
2022-10-23T04:18:17.333Z,101347.44
2022-10-23T04:23:10.533Z,101371.16
2022-10-23T04:28:06.139Z,101398.16
2022-10-23T04:33:03.850Z,101364.63
2022-10-23T04:37:59.170Z,101390.19
2022-10-23T04:42:52.278Z,101398.16
2022-10-23T04:47:46.857Z,101413.31
2022-10-23T04:52:40.130Z,101409.53
2022-10-23T04:58:11.003Z,101428.75
2022-10-23T05:03:05.600Z,101435.31
2022-10-23T05:08:05.985Z,101421.22
2022-10-23T05:13:31.748Z,101436.00
2022-10-23T05:18:31.314Z,101426.94
2022-10-23T05:23:26.649Z,101445.09
2022-10-23T05:28:26.912Z,101361.53
2022-10-23T05:33:20.465Z,101459.19
2022-10-23T05:38:18.120Z,101488.44
2022-10-23T05:43:11.679Z,101454.75
2022-10-23T05:48:34.275Z,101507.31
2022-10-23T05:53:47.991Z,101522.81
2022-10-23T05:58:46.183Z,101532.97
2022-10-23T06:03:43.861Z,101542.53
2022-10-23T06:08:38.364Z,101530.94
2022-10-23T06:13:32.951Z,101561.78
2022-10-23T06:18:26.614Z,101564.88
2022-10-23T06:23:32.037Z,101587.34
2022-10-23T06:28:42.842Z,101599.09
2022-10-23T06:33:36.717Z,101599.38
2022-10-23T06:38:36.759Z,101568.66
2022-10-23T06:43:30.640Z,101579.88
2022-10-23T06:48:45.925Z,101568.06
2022-10-23T06:53:46.554Z,101615.13
2022-10-23T06:58:59.953Z,101556.44
2022-10-23T07:03:54.718Z,101628.72
2022-10-23T07:08:52.554Z,101613.91
2022-10-23T07:14:04.140Z,101627.97
2022-10-23T07:19:01.293Z,101630.56
2022-10-23T07:31:04.899Z,101551.16
2022-10-23T07:36:37.426Z,101534.00
2022-10-23T07:54:20.961Z,101440.69
2022-10-23T08:00:46.086Z,101414.28
2022-10-23T08:07:20.986Z,101648.19
2022-10-23T10:12:04.057Z,101605.88
2022-10-23T11:34:34.623Z,101524.63
2022-10-23T11:46:40.152Z,101543.41
2022-10-23T11:52:42.042Z,101559.66
2022-10-23T12:19:51.751Z,101531.41
2022-10-23T12:53:00.787Z,101354.75
2022-10-23T13:12:09.016Z,101530.75
2022-10-23T13:17:17.048Z,101476.94
2022-10-23T13:47:16.284Z,101377.81
2022-10-23T13:47:30.864Z,101365.69
2022-10-23T13:52:25.137Z,101534.91
2022-10-23T13:57:33.601Z,101543.06
2022-10-23T14:02:41.507Z,101540.72
2022-10-23T14:20:11.130Z,101542.72
2022-10-23T14:25:50.285Z,101548.56
2022-10-23T14:31:19.625Z,101355.31
2022-10-23T14:37:08.045Z,101378.16
2022-10-23T14:55:49.607Z,101465.34
2022-10-23T15:07:37.949Z,101548.53
2022-10-23T15:12:31.485Z,101448.53
2022-10-23T15:17:24.602Z,101547.44
2022-10-23T15:22:19.051Z,101468.38
2022-10-23T15:27:16.831Z,101435.84
2022-10-23T15:32:13.970Z,101458.03
2022-10-23T15:37:07.221Z,101558.81
2022-10-23T15:42:00.902Z,101573.31
2022-10-23T15:46:57.082Z,101559.94
2022-10-23T15:51:53.450Z,101578.09
2022-10-23T15:56:47.162Z,101496.56
2022-10-23T16:01:40.477Z,101495.22
2022-10-23T16:06:35.602Z,101595.50
2022-10-23T16:11:31.982Z,101601.56
2022-10-23T16:16:26.012Z,101579.19
2022-10-23T16:21:21.415Z,101617.75
2022-10-23T16:26:16.622Z,101629.81
2022-10-23T16:31:11.194Z,101601.94
2022-10-23T16:36:05.261Z,101620.88
2022-10-23T16:41:10.762Z,101644.25
2022-10-23T16:46:23.654Z,101647.38
2022-10-23T16:51:19.213Z,101568.56
2022-10-23T16:56:18.617Z,101651.59
2022-10-23T17:01:14.775Z,101586.19
2022-10-23T17:06:12.149Z,101667.97
2022-10-23T17:11:10.548Z,101663.53
2022-10-23T17:16:06.047Z,101669.50
2022-10-23T17:20:59.863Z,101563.88
2022-10-23T17:25:54.961Z,101681.03
2022-10-23T17:30:51.234Z,101655.81
2022-10-23T17:35:45.442Z,101665.44
2022-10-23T17:40:38.787Z,101649.38
2022-10-23T17:45:35.851Z,101653.06
2022-10-23T17:50:29.087Z,101709.16
2022-10-23T17:55:22.210Z,101700.41
2022-10-23T18:00:16.243Z,101662.97
2022-10-23T18:05:11.409Z,101700.72
2022-10-23T18:10:05.371Z,101682.88
2022-10-23T18:14:58.569Z,101708.47
2022-10-23T18:19:51.870Z,101715.72
2022-10-23T18:24:46.391Z,101680.59
2022-10-23T18:29:40.222Z,101679.47
2022-10-23T18:34:33.484Z,101744.25
2022-10-23T18:39:27.047Z,101718.22
2022-10-23T18:44:22.782Z,101654.94
2022-10-23T18:49:17.204Z,101758.88
2022-10-23T18:54:13.511Z,101648.34
2022-10-23T18:59:11.337Z,101651.84
2022-10-23T19:04:07.126Z,101758.84
2022-10-23T19:09:00.489Z,101755.66
2022-10-23T19:13:53.714Z,101641.91
2022-10-23T19:18:50.698Z,101738.81
2022-10-23T19:23:45.794Z,101742.06
2022-10-23T19:28:41.212Z,101737.28
2022-10-23T19:33:34.516Z,101683.41
2022-10-23T19:38:27.715Z,101757.69
2022-10-23T19:43:22.450Z,101717.13
2022-10-23T19:48:15.567Z,101754.09
2022-10-23T19:53:08.981Z,101654.66
2022-10-23T19:58:02.156Z,101753.75
2022-10-23T20:02:57.056Z,101725.44
2022-10-23T20:07:52.446Z,101722.38
2022-10-23T20:12:51.616Z,101731.47
2022-10-23T20:17:57.188Z,101754.94
2022-10-23T20:22:55.388Z,101726.03
2022-10-23T20:27:48.969Z,101755.06
2022-10-23T20:32:45.861Z,101754.34
2022-10-23T20:37:41.013Z,101689.03
2022-10-23T20:42:34.211Z,101742.03
2022-10-23T20:47:27.563Z,101678.63
2022-10-23T20:52:22.171Z,101761.50
2022-10-23T20:57:20.536Z,101773.38
2022-10-23T21:02:14.864Z,101733.69
2022-10-23T21:07:10.690Z,101766.53
2022-10-23T21:12:04.725Z,101783.44
2022-10-23T21:16:59.209Z,101790.78
2022-10-23T21:21:52.539Z,101771.66
2022-10-23T21:26:46.393Z,101789.72
2022-10-23T21:31:39.606Z,101744.25
2022-10-23T21:36:48.183Z,101771.69
2022-10-23T21:41:47.160Z,101765.66
2022-10-23T21:46:41.867Z,101714.75
2022-10-23T21:51:38.276Z,101791.09
2022-10-23T21:56:33.805Z,101754.22
2022-10-23T22:01:29.303Z,101631.50
2022-10-23T22:06:28.915Z,101797.50
2022-10-23T22:11:23.950Z,101720.28
2022-10-23T22:16:19.548Z,101808.34
2022-10-23T22:21:14.539Z,101791.25
2022-10-23T22:26:09.701Z,101812.34
2022-10-23T22:31:04.277Z,101816.94
2022-10-23T22:36:01.937Z,101818.56
2022-10-23T22:40:55.223Z,101793.78
2022-10-23T22:45:48.518Z,101772.78
2022-10-23T22:50:43.023Z,101767.78
2022-10-23T22:55:36.739Z,101746.94
2022-10-23T23:00:30.012Z,101791.13
2022-10-23T23:05:23.235Z,101753.84
2022-10-23T23:10:17.944Z,101735.63
2022-10-23T23:15:11.425Z,101802.34
2022-10-23T23:20:05.016Z,101793.06
2022-10-23T23:24:58.396Z,101779.31
2022-10-23T23:29:53.044Z,101772.94
2022-10-23T23:34:46.229Z,101811.00
2022-10-23T23:39:39.433Z,101717.41
2022-10-23T23:44:32.670Z,101768.47
2022-10-23T23:49:27.175Z,101757.63
2022-10-23T23:54:20.323Z,101788.06
2022-10-23T23:59:13.527Z,101762.97
